createdAt,value
2018-09-15T00:01:36.121Z,4.80
2018-09-15T00:04:03.784Z,3.97
2018-09-15T00:06:31.489Z,3.87
2018-09-15T00:08:59.289Z,4.47
2018-09-15T00:11:27.127Z,4.33
2018-09-15T00:13:54.769Z,4.90
2018-09-15T00:16:22.437Z,5.73
2018-09-15T00:18:51.193Z,5.67
2018-09-15T00:21:18.901Z,5.60
2018-09-15T00:23:46.871Z,6.47
2018-09-15T00:26:14.706Z,4.67
2018-09-15T00:28:42.719Z,5.55
2018-09-15T00:31:10.365Z,6.05
2018-09-15T00:33:37.976Z,5.50
2018-09-15T00:36:05.576Z,5.37
2018-09-15T00:38:33.219Z,6.10
2018-09-15T00:41:01.069Z,5.65
2018-09-15T00:43:28.676Z,4.97
2018-09-15T00:45:56.321Z,5.37
2018-09-15T00:48:23.933Z,6.05
2018-09-15T00:50:51.618Z,5.20
2018-09-15T00:53:19.459Z,5.37
2018-09-15T00:55:47.078Z,6.03
2018-09-15T00:58:14.733Z,6.12
2018-09-15T01:00:42.608Z,6.72
2018-09-15T01:03:10.215Z,6.42
2018-09-15T01:05:37.952Z,6.90
2018-09-15T01:08:05.534Z,5.42
2018-09-15T01:10:33.185Z,5.95
2018-09-15T01:13:00.820Z,6.35
2018-09-15T01:15:28.590Z,6.80
2018-09-15T01:17:57.263Z,5.87
2018-09-15T01:20:25.845Z,6.65
2018-09-15T01:22:53.988Z,5.40
2018-09-15T01:25:22.673Z,5.90
2018-09-15T01:27:50.538Z,5.72
2018-09-15T01:30:18.787Z,6.40
2018-09-15T01:32:46.916Z,6.15
2018-09-15T01:35:14.633Z,6.37
2018-09-15T01:37:42.247Z,6.33
2018-09-15T01:40:09.892Z,5.95
2018-09-15T01:42:37.512Z,6.87
2018-09-15T01:45:05.268Z,5.85
2018-09-15T01:47:32.947Z,5.83
2018-09-15T01:50:00.937Z,6.90
2018-09-15T01:52:28.685Z,6.10
2018-09-15T01:54:56.304Z,6.60
2018-09-15T01:57:24.232Z,6.60
2018-09-15T01:59:51.981Z,5.87
2018-09-15T02:02:19.572Z,6.15
2018-09-15T02:04:47.408Z,7.05
2018-09-15T02:07:15.161Z,6.65
2018-09-15T02:09:42.734Z,5.55
2018-09-15T02:12:10.427Z,7.05
2018-09-15T02:14:38.159Z,6.70
2018-09-15T02:17:05.891Z,7.37
2018-09-15T02:19:33.742Z,6.40
2018-09-15T02:22:01.859Z,5.92
2018-09-15T02:24:29.728Z,6.90
2018-09-15T02:26:57.512Z,7.80
2018-09-15T02:29:25.199Z,7.30
2018-09-15T02:31:53.522Z,7.20
2018-09-15T02:34:21.289Z,6.75
2018-09-15T02:36:49.309Z,7.42
2018-09-15T02:39:17.208Z,7.03
2018-09-15T02:41:44.871Z,7.33
2018-09-15T02:44:12.633Z,7.05
2018-09-15T02:46:40.333Z,8.20
2018-09-15T02:49:07.858Z,7.50
2018-09-15T02:51:35.494Z,8.03
2018-09-15T02:54:03.350Z,7.53
2018-09-15T02:56:30.936Z,7.60
2018-09-15T02:58:58.656Z,8.73
2018-09-15T03:01:26.417Z,9.53
2018-09-15T03:03:54.459Z,8.58
2018-09-15T03:06:22.103Z,7.75
2018-09-15T03:08:50.198Z,8.33
2018-09-15T03:11:18.072Z,8.55
2018-09-15T03:13:45.697Z,8.60
2018-09-15T03:16:14.096Z,9.58
2018-09-15T03:18:41.905Z,8.60
2018-09-15T03:21:10.550Z,7.97
2018-09-15T03:23:38.443Z,9.00
2018-09-15T03:26:07.327Z,9.28
2018-09-15T03:28:35.754Z,9.60
2018-09-15T03:31:03.447Z,8.48
2018-09-15T03:33:31.160Z,8.28
2018-09-15T03:35:59.529Z,10.25
2018-09-15T03:38:27.378Z,9.50
2018-09-15T03:40:55.237Z,10.15
2018-09-15T03:43:23.843Z,9.60
2018-09-15T03:45:51.412Z,8.33
2018-09-15T03:48:18.946Z,8.60
2018-09-15T03:50:46.483Z,9.33
2018-09-15T03:53:14.153Z,8.78
2018-09-15T03:55:41.696Z,9.90
2018-09-15T03:58:09.441Z,8.83
2018-09-15T04:00:37.759Z,9.18
2018-09-15T04:03:05.630Z,9.75
2018-09-15T04:05:33.728Z,8.83
2018-09-15T04:08:02.461Z,8.75
2018-09-15T04:10:30.303Z,9.10
2018-09-15T04:12:58.073Z,10.58
2018-09-15T04:15:25.877Z,8.70
2018-09-15T04:17:53.880Z,9.08
2018-09-15T04:20:21.839Z,9.15
2018-09-15T04:22:49.501Z,9.90
2018-09-15T04:25:18.195Z,9.78
2018-09-15T04:27:46.172Z,8.78
2018-09-15T04:30:14.204Z,8.95
2018-09-15T04:32:42.418Z,8.73
2018-09-15T04:35:10.191Z,7.95
2018-09-15T04:37:38.484Z,9.00
2018-09-15T04:40:06.205Z,10.40
2018-09-15T04:42:34.034Z,8.98
2018-09-15T04:45:02.731Z,8.35
2018-09-15T04:47:30.714Z,8.33
2018-09-15T04:49:58.453Z,8.28
2018-09-15T04:52:26.552Z,8.53
2018-09-15T04:54:54.653Z,9.60
2018-09-15T04:57:22.455Z,9.10
2018-09-15T04:59:50.296Z,8.70
2018-09-15T05:02:19.006Z,8.28
2018-09-15T05:04:46.653Z,9.03
2018-09-15T05:07:14.609Z,9.78
2018-09-15T05:09:42.507Z,8.98
2018-09-15T05:12:10.540Z,9.48
2018-09-15T05:14:39.061Z,8.10
2018-09-15T05:17:08.435Z,8.80
2018-09-15T05:19:36.413Z,9.00
2018-09-15T05:22:04.112Z,7.83
2018-09-15T05:24:31.939Z,8.93
2018-09-15T05:27:00.565Z,8.65
2018-09-15T05:29:28.826Z,8.65
2018-09-15T05:31:56.564Z,9.15
2018-09-15T05:34:24.927Z,9.40
2018-09-15T05:36:53.516Z,8.65
2018-09-15T05:39:21.537Z,7.83
2018-09-15T05:41:49.352Z,7.40
2018-09-15T05:44:18.354Z,8.68
2018-09-15T05:46:46.211Z,8.48
2018-09-15T05:49:14.001Z,8.80
2018-09-15T05:51:42.029Z,8.58
2018-09-15T05:54:10.452Z,7.30
2018-09-15T05:56:38.373Z,7.50
2018-09-15T05:59:06.602Z,7.20
2018-09-15T06:01:34.529Z,8.83
2018-09-15T06:04:02.399Z,7.20
2018-09-15T06:06:30.508Z,7.10
2018-09-15T06:08:58.114Z,7.05
2018-09-15T06:11:26.209Z,7.03
2018-09-15T06:13:54.117Z,8.55
2018-09-15T06:16:22.605Z,8.30
2018-09-15T06:18:50.872Z,9.28
2018-09-15T06:21:18.572Z,8.70
2018-09-15T06:23:46.303Z,9.43
2018-09-15T06:26:14.557Z,11.18
2018-09-15T06:28:42.646Z,9.13
2018-09-15T06:31:10.493Z,10.40
2018-09-15T06:33:38.209Z,7.95
2018-09-15T06:36:06.148Z,7.10
2018-09-15T06:38:34.243Z,8.30
2018-09-15T06:41:02.358Z,6.45
2018-09-15T06:43:30.434Z,7.58
2018-09-15T06:45:58.576Z,6.97
2018-09-15T06:48:27.012Z,7.25
2018-09-15T06:50:55.066Z,6.60
2018-09-15T06:53:23.047Z,7.30
2018-09-15T06:55:51.305Z,6.95
2018-09-15T06:58:19.279Z,6.58
2018-09-15T07:00:50.325Z,6.22
2018-09-15T07:03:18.084Z,7.80
2018-09-15T07:05:45.854Z,6.78
2018-09-15T07:08:13.805Z,6.22
2018-09-15T07:10:41.585Z,6.40
2018-09-15T07:13:09.858Z,7.15
2018-09-15T07:15:37.785Z,7.35
2018-09-15T07:18:06.441Z,6.83
2018-09-15T07:20:34.185Z,6.78
2018-09-15T07:23:02.222Z,7.50
2018-09-15T07:25:30.161Z,6.75
2018-09-15T07:27:58.059Z,6.40
2018-09-15T07:30:26.073Z,6.65
2018-09-15T07:32:54.033Z,7.37
2018-09-15T07:35:21.918Z,7.17
2018-09-15T07:37:49.811Z,7.00
2018-09-15T07:40:18.543Z,8.15
2018-09-15T07:42:46.523Z,7.70
2018-09-15T07:45:14.262Z,7.08
2018-09-15T07:47:42.329Z,7.03
2018-09-15T07:50:14.585Z,6.80
2018-09-15T07:52:44.309Z,6.55
2018-09-15T07:55:12.341Z,7.67
2018-09-15T07:57:40.755Z,5.50
2018-09-15T08:00:08.924Z,5.10
2018-09-15T08:02:37.982Z,6.80
2018-09-15T08:05:06.168Z,6.20
2018-09-15T08:07:34.401Z,6.45
2018-09-15T08:10:04.929Z,7.85
2018-09-15T08:12:34.439Z,7.40
2018-09-15T08:15:05.732Z,8.83
2018-09-15T08:17:34.150Z,7.97
2018-09-15T08:20:03.128Z,8.73
2018-09-15T08:22:33.528Z,8.10
2018-09-15T08:25:02.230Z,6.97
2018-09-15T08:27:30.455Z,7.67
2018-09-15T08:29:58.337Z,9.10
2018-09-15T08:32:26.384Z,10.20
2018-09-15T08:34:54.208Z,8.30
2018-09-15T08:37:22.478Z,9.00
2018-09-15T08:39:50.591Z,9.70
2018-09-15T08:42:18.518Z,9.10
2018-09-15T08:44:46.803Z,11.10
2018-09-15T08:47:15.982Z,10.23
2018-09-15T08:49:44.054Z,9.27
2018-09-15T08:52:11.665Z,10.43
2018-09-15T08:54:39.764Z,10.17
2018-09-15T08:57:07.567Z,8.83
2018-09-15T08:59:37.336Z,9.43
2018-09-15T09:02:11.088Z,10.90
2018-09-15T09:04:39.265Z,9.63
2018-09-15T09:07:07.027Z,10.90
2018-09-15T09:09:34.823Z,10.20
2018-09-15T09:12:03.912Z,10.97
2018-09-15T09:14:31.702Z,11.17
2018-09-15T09:16:59.436Z,11.10
2018-09-15T09:19:27.843Z,10.33
2018-09-15T09:22:00.214Z,11.27
2018-09-15T09:24:28.729Z,10.07
2018-09-15T09:26:56.820Z,9.10
2018-09-15T09:29:25.442Z,9.53
2018-09-15T09:31:53.431Z,10.57
2018-09-15T09:34:21.866Z,10.80
2018-09-15T09:36:49.708Z,10.20
2018-09-15T09:39:17.610Z,9.43
2018-09-15T09:41:45.619Z,9.70
2018-09-15T09:44:13.869Z,13.90
2018-09-15T09:46:41.841Z,10.67
2018-09-15T09:49:09.682Z,10.80
2018-09-15T09:51:37.362Z,11.63
2018-09-15T09:54:05.447Z,11.10
2018-09-15T09:56:34.417Z,10.53
2018-09-15T09:59:02.334Z,9.90
2018-09-15T10:01:35.705Z,9.37
2018-09-15T10:04:03.630Z,9.53
2018-09-15T10:06:31.549Z,7.60
2018-09-15T10:09:00.827Z,8.30
2018-09-15T10:11:28.894Z,9.67
2018-09-15T10:13:56.846Z,9.13
2018-09-15T10:16:24.882Z,7.30
2018-09-15T10:18:53.237Z,7.43
2018-09-15T10:21:21.077Z,18.77
2018-09-15T10:23:49.222Z,6.60
2018-09-15T10:26:17.525Z,5.50
2018-09-15T10:28:45.503Z,6.97
2018-09-15T10:31:13.396Z,6.20
2018-09-15T10:33:41.402Z,6.53
2018-09-15T10:36:09.275Z,6.50
2018-09-15T10:38:37.198Z,6.83
2018-09-15T10:41:05.124Z,6.47
2018-09-15T10:43:32.916Z,6.80
2018-09-15T10:46:00.773Z,7.53
2018-09-15T10:48:28.526Z,7.17
2018-09-15T10:50:56.393Z,6.47
2018-09-15T10:53:24.134Z,5.93
2018-09-15T10:55:52.002Z,8.00
2018-09-15T10:58:20.179Z,7.50
2018-09-15T11:00:47.924Z,6.90
2018-09-15T11:03:15.632Z,6.77
2018-09-15T11:05:43.985Z,5.00
2018-09-15T11:08:12.257Z,3.80
2018-09-15T11:10:40.441Z,4.10
2018-09-15T11:13:08.412Z,6.37
2018-09-15T11:15:37.107Z,5.43
2018-09-15T11:18:05.489Z,5.43
2018-09-15T11:20:34.064Z,4.70
2018-09-15T11:23:02.019Z,4.37
2018-09-15T11:25:30.080Z,4.47
2018-09-15T11:27:57.952Z,3.90
2018-09-15T11:30:25.814Z,4.20
2018-09-15T11:32:53.606Z,4.20
2018-09-15T11:35:21.400Z,4.27
2018-09-15T11:37:49.619Z,3.97
2018-09-15T11:40:17.511Z,4.17
2018-09-15T11:42:45.169Z,4.40
2018-09-15T11:45:13.311Z,4.13
2018-09-15T11:47:41.654Z,4.17
2018-09-15T11:50:09.466Z,3.67
2018-09-15T11:52:37.318Z,4.73
2018-09-15T11:55:05.511Z,4.50
2018-09-15T11:57:33.480Z,3.40
2018-09-15T12:00:01.652Z,3.70
2018-09-15T12:02:31.627Z,3.60
2018-09-15T12:05:00.337Z,3.20
2018-09-15T12:07:29.192Z,2.90
2018-09-15T12:09:57.924Z,3.20
2018-09-15T12:12:27.042Z,2.90
2018-09-15T12:14:55.451Z,3.10
2018-09-15T12:17:23.355Z,2.87
2018-09-15T12:19:51.661Z,2.83
2018-09-15T12:22:19.795Z,3.13
2018-09-15T12:24:47.921Z,3.20
2018-09-15T12:27:15.647Z,2.80
2018-09-15T12:29:43.864Z,3.70
2018-09-15T12:32:11.929Z,2.60
2018-09-15T12:34:45.024Z,2.23
2018-09-15T12:37:12.749Z,2.70
2018-09-15T12:39:40.677Z,2.20
2018-09-15T12:42:08.327Z,1.90
2018-09-15T12:44:36.317Z,2.23
2018-09-15T12:47:04.211Z,2.70
2018-09-15T12:49:32.236Z,2.60
2018-09-15T12:52:00.384Z,3.90
2018-09-15T12:54:28.223Z,2.57
2018-09-15T12:56:56.743Z,2.37
2018-09-15T12:59:24.490Z,2.90
2018-09-15T13:01:52.389Z,2.60
2018-09-15T13:04:20.774Z,2.13
2018-09-15T13:06:48.989Z,2.63
2018-09-15T13:09:16.739Z,2.27
2018-09-15T13:11:45.588Z,2.40
2018-09-15T13:14:13.710Z,2.37
2018-09-15T13:16:41.674Z,2.17
2018-09-15T13:19:10.006Z,1.90
2018-09-15T13:21:37.913Z,2.17
2018-09-15T13:24:06.410Z,2.60
2018-09-15T13:26:34.366Z,2.17
2018-09-15T13:29:02.381Z,2.67
2018-09-15T13:31:30.140Z,2.00
2018-09-15T13:33:58.395Z,1.73
2018-09-15T13:36:26.577Z,2.50
2018-09-15T13:38:55.088Z,2.37
2018-09-15T13:41:23.969Z,2.17
2018-09-15T13:43:52.201Z,2.47
2018-09-15T13:46:20.037Z,3.00
2018-09-15T13:48:47.951Z,2.30
2018-09-15T13:51:15.790Z,2.50
2018-09-15T13:53:43.628Z,2.00
2018-09-15T13:56:11.512Z,3.60
2018-09-15T13:58:39.511Z,1.77
2018-09-15T14:01:07.759Z,2.43
2018-09-15T14:03:36.470Z,2.20
2018-09-15T14:06:04.416Z,2.70
2018-09-15T14:08:32.685Z,2.60
2018-09-15T14:11:01.260Z,2.47
2018-09-15T14:13:29.922Z,1.90
2018-09-15T14:15:59.361Z,2.30
2018-09-15T14:18:27.265Z,2.37
2018-09-15T14:20:55.289Z,2.27
2018-09-15T14:23:23.475Z,2.10
2018-09-15T14:25:52.707Z,2.03
2018-09-15T14:28:20.567Z,1.93
2018-09-15T14:30:48.567Z,2.33
2018-09-15T14:33:16.329Z,2.43
2018-09-15T14:35:44.125Z,2.43
2018-09-15T14:38:12.097Z,2.07
2018-09-15T14:40:39.927Z,2.13
2018-09-15T14:43:07.924Z,2.20
2018-09-15T14:45:35.689Z,1.67
2018-09-15T14:48:03.573Z,1.60
2018-09-15T14:50:31.946Z,2.10
2018-09-15T14:53:00.669Z,1.87
2018-09-15T14:55:29.017Z,2.20
2018-09-15T14:57:57.463Z,2.10
2018-09-15T15:00:25.767Z,2.03
2018-09-15T15:02:57.571Z,1.67
2018-09-15T15:05:26.233Z,1.80
2018-09-15T15:07:54.349Z,1.50
2018-09-15T15:10:22.365Z,1.23
2018-09-15T15:12:50.771Z,1.70
2018-09-15T15:15:18.539Z,1.90
2018-09-15T15:17:46.217Z,2.27
2018-09-15T15:20:14.571Z,1.97
2018-09-15T15:22:42.659Z,3.10
2018-09-15T15:25:10.333Z,1.63
2018-09-15T15:27:38.076Z,2.30
2018-09-15T15:30:06.696Z,2.43
2018-09-15T15:32:34.561Z,1.67
2018-09-15T15:35:07.225Z,1.50
2018-09-15T15:37:35.056Z,2.10
2018-09-15T15:40:03.032Z,1.50
2018-09-15T15:42:30.699Z,1.67
2018-09-15T15:44:59.795Z,2.87
2018-09-15T15:47:27.890Z,1.40
2018-09-15T15:49:55.548Z,1.73
2018-09-15T15:52:23.303Z,1.40
2018-09-15T15:54:50.949Z,1.70
2018-09-15T15:57:18.835Z,1.50
2018-09-15T15:59:46.691Z,1.40
2018-09-15T16:02:14.912Z,1.57
2018-09-15T16:04:42.637Z,2.00
2018-09-15T16:07:10.325Z,1.63
2018-09-15T16:09:37.962Z,1.83
2018-09-15T16:12:05.638Z,1.13
2018-09-15T16:14:33.425Z,1.73
2018-09-15T16:17:01.272Z,1.83
2018-09-15T16:19:28.903Z,1.50
2018-09-15T16:21:56.588Z,2.03
2018-09-15T16:24:24.240Z,1.63
2018-09-15T16:26:56.366Z,1.30
2018-09-15T16:29:24.153Z,1.13
2018-09-15T16:31:51.901Z,1.60
2018-09-15T16:34:20.089Z,1.53
2018-09-15T16:36:47.853Z,1.87
2018-09-15T16:39:15.750Z,1.53
2018-09-15T16:41:43.495Z,1.50
2018-09-15T16:44:11.324Z,2.10
2018-09-15T16:46:39.003Z,1.30
2018-09-15T16:49:07.710Z,1.30
2018-09-15T16:51:35.682Z,1.03
2018-09-15T16:54:04.362Z,1.20
2018-09-15T16:56:31.989Z,1.13
2018-09-15T16:58:59.968Z,0.90
2018-09-15T17:01:27.709Z,1.23
2018-09-15T17:03:55.552Z,1.30
2018-09-15T17:06:23.812Z,1.40
2018-09-15T17:08:51.540Z,1.63
2018-09-15T17:11:19.292Z,1.37
2018-09-15T17:13:47.921Z,1.13
2018-09-15T17:16:16.025Z,1.20
2018-09-15T17:18:43.742Z,1.50
2018-09-15T17:21:12.177Z,1.00
2018-09-15T17:23:39.916Z,1.33
2018-09-15T17:26:08.095Z,1.53
2018-09-15T17:28:35.776Z,1.37
2018-09-15T17:31:03.499Z,1.50
2018-09-15T17:33:31.253Z,1.40
2018-09-15T17:35:58.905Z,1.10
2018-09-15T17:38:26.889Z,1.20
2018-09-15T17:40:54.544Z,1.37
2018-09-15T17:43:22.464Z,1.10
2018-09-15T17:45:50.710Z,1.50
2018-09-15T17:48:18.599Z,0.90
2018-09-15T17:50:46.418Z,1.17
2018-09-15T17:53:14.109Z,0.90
2018-09-15T17:55:41.945Z,1.87
2018-09-15T17:58:09.928Z,1.00
2018-09-15T18:00:37.956Z,1.20
2018-09-15T18:03:05.962Z,1.33
2018-09-15T18:05:34.279Z,1.23
2018-09-15T18:08:02.380Z,1.53
2018-09-15T18:10:30.269Z,1.30
2018-09-15T18:12:58.260Z,1.30
2018-09-15T18:15:26.288Z,1.30
2018-09-15T18:17:54.150Z,0.90
2018-09-15T18:20:22.599Z,0.87
2018-09-15T18:22:50.512Z,0.80
2018-09-15T18:25:18.494Z,0.90
2018-09-15T18:27:46.613Z,0.90
2018-09-15T18:30:14.998Z,1.10
2018-09-15T18:32:43.046Z,1.40
2018-09-15T18:35:12.000Z,0.90
2018-09-15T18:37:39.840Z,1.20
2018-09-15T18:40:08.818Z,1.60
2018-09-15T18:42:37.267Z,1.20
2018-09-15T18:45:05.260Z,0.93
2018-09-15T18:47:33.056Z,1.00
2018-09-15T18:50:00.734Z,0.73
2018-09-15T18:52:28.611Z,0.80
2018-09-15T18:54:56.560Z,1.37
2018-09-15T18:57:24.427Z,0.80
2018-09-15T18:59:53.324Z,0.90
2018-09-15T19:02:21.318Z,0.90
2018-09-15T19:04:48.964Z,0.80
2018-09-15T19:07:17.035Z,1.10
2018-09-15T19:09:44.808Z,1.10
2018-09-15T19:12:13.197Z,0.80
2018-09-15T19:14:41.362Z,0.80
2018-09-15T19:17:09.888Z,0.80
2018-09-15T19:19:37.873Z,0.90
2018-09-15T19:22:06.468Z,0.80
2018-09-15T19:24:34.359Z,0.90
2018-09-15T19:27:02.981Z,0.70
2018-09-15T19:29:30.899Z,0.93
2018-09-15T19:31:58.782Z,0.80
2018-09-15T19:34:26.603Z,0.90
2018-09-15T19:36:54.527Z,0.80
2018-09-15T19:39:22.689Z,0.90
2018-09-15T19:41:51.535Z,0.90
2018-09-15T19:44:21.656Z,1.02
2018-09-15T19:46:49.825Z,0.70
2018-09-15T19:49:17.872Z,1.00
2018-09-15T19:51:45.915Z,0.70
2018-09-15T19:54:13.688Z,0.80
2018-09-15T19:56:41.568Z,1.12
2018-09-15T19:59:09.623Z,0.90
2018-09-15T20:01:37.541Z,0.80
2018-09-15T20:04:05.505Z,0.80
2018-09-15T20:06:35.017Z,0.80
2018-09-15T20:09:04.997Z,0.82
2018-09-15T20:11:33.646Z,0.80
2018-09-15T20:14:01.769Z,0.80
2018-09-15T20:16:28.557Z,0.70
2018-09-15T20:18:55.232Z,0.93
2018-09-15T20:21:21.752Z,2.35
2018-09-15T20:23:50.085Z,1.07
2018-09-15T20:26:18.379Z,0.90
2018-09-15T20:28:46.529Z,1.27
2018-09-15T20:31:14.582Z,1.05
2018-09-15T20:33:42.625Z,1.00
2018-09-15T20:36:11.789Z,1.15
2018-09-15T20:38:40.557Z,1.00
2018-09-15T20:41:08.303Z,0.80
2018-09-15T20:43:36.403Z,0.90
2018-09-15T20:46:04.157Z,0.90
2018-09-15T20:48:31.827Z,1.05
2018-09-15T20:50:59.490Z,1.02
2018-09-15T20:53:27.538Z,1.00
2018-09-15T20:55:55.393Z,0.90
2018-09-15T20:58:23.597Z,1.05
2018-09-15T21:00:51.767Z,1.37
2018-09-15T21:03:19.518Z,1.10
2018-09-15T21:05:49.007Z,1.43
2018-09-15T21:08:16.819Z,1.90
2018-09-15T21:10:44.568Z,1.90
2018-09-15T21:13:12.384Z,2.12
2018-09-15T21:15:40.193Z,2.55
2018-09-15T21:18:07.863Z,1.80
2018-09-15T21:20:36.374Z,2.05
2018-09-15T21:23:04.170Z,1.80
2018-09-15T21:25:31.912Z,2.02
2018-09-15T21:27:59.808Z,2.20
2018-09-15T21:30:28.737Z,1.80
2018-09-15T21:32:56.486Z,2.83
2018-09-15T21:35:24.655Z,1.75
2018-09-15T21:37:53.108Z,1.85
2018-09-15T21:40:21.729Z,1.98
2018-09-15T21:42:50.319Z,2.10
2018-09-15T21:45:18.013Z,1.98
2018-09-15T21:47:45.688Z,1.50
2018-09-15T21:50:13.385Z,1.50
2018-09-15T21:52:41.545Z,1.20
2018-09-15T21:55:09.326Z,1.30
2018-09-15T21:57:37.079Z,1.45
2018-09-15T22:00:07.234Z,1.50
2018-09-15T22:02:34.907Z,1.02
2018-09-15T22:05:03.224Z,1.20
2018-09-15T22:07:31.454Z,1.05
2018-09-15T22:09:59.407Z,1.30
2018-09-15T22:12:27.416Z,1.20
2018-09-15T22:14:55.243Z,1.47
2018-09-15T22:17:23.405Z,1.30
2018-09-15T22:19:51.860Z,1.42
2018-09-15T22:22:19.881Z,1.37
2018-09-15T22:24:48.933Z,1.40
2018-09-15T22:27:16.793Z,1.87
2018-09-15T22:29:45.110Z,1.75
2018-09-15T22:32:12.837Z,1.62
2018-09-15T22:34:40.724Z,1.70
2018-09-15T22:37:09.312Z,1.30
2018-09-15T22:39:37.193Z,1.40
2018-09-15T22:42:05.265Z,1.40
2018-09-15T22:44:33.431Z,1.20
2018-09-15T22:47:01.309Z,1.22
2018-09-15T22:49:29.643Z,1.57
2018-09-15T22:51:57.439Z,1.67
2018-09-15T22:54:25.208Z,1.45
2018-09-15T22:56:53.120Z,1.57
2018-09-15T22:59:20.893Z,1.35
2018-09-15T23:01:49.374Z,1.55
2018-09-15T23:04:17.296Z,2.00
2018-09-15T23:06:45.665Z,1.80
2018-09-15T23:09:13.472Z,1.80
2018-09-15T23:11:41.135Z,1.50
2018-09-15T23:14:09.449Z,1.52
2018-09-15T23:16:37.611Z,2.80
2018-09-15T23:19:06.561Z,1.37
2018-09-15T23:21:46.450Z,1.50
2018-09-15T23:24:16.034Z,1.52
2018-09-15T23:26:44.412Z,1.40
2018-09-15T23:29:12.068Z,1.60
2018-09-15T23:31:40.244Z,1.35
2018-09-15T23:34:09.606Z,1.35
2018-09-15T23:36:37.323Z,1.62
2018-09-15T23:39:08.262Z,2.55
2018-09-15T23:41:36.165Z,1.80
2018-09-15T23:44:04.323Z,2.25
2018-09-15T23:46:33.392Z,1.72
2018-09-15T23:49:01.441Z,1.55
2018-09-15T23:51:29.495Z,1.87
2018-09-15T23:53:57.154Z,1.12
2018-09-15T23:56:24.900Z,1.40
2018-09-15T23:58:53.829Z,1.70
